Time;durP1;ratioP1;P1;durP2;ratioP2;P2;SDS_P1;SDS_P2;PMS_P1;PMS_P2;Temp;Humidity;BMP_temperature;BMP_pressure;BME280_temperature;BME280_humidity;BME280_pressure;Samples;Min_cycle;Max_cycle;Signal;HPM_P1;HPM_P2
2023/09/08 00:01:39;;;;;;;14.95;9.15;;;14.80;99.90;;;;;;5036755;28;20022;-66
2023/09/08 00:04:06;;;;;;;14.85;9.70;;;14.80;99.90;;;;;;5036697;28;20037;-66
2023/09/08 00:06:32;;;;;;;12.80;9.50;;;14.80;99.90;;;;;;5036143;28;20080;-66
2023/09/08 00:08:58;;;;;;;12.90;9.52;;;14.70;99.90;;;;;;5036492;28;20025;-66
2023/09/08 00:11:23;;;;;;;17.05;10.55;;;14.90;99.90;;;;;;5036766;28;20387;-66
2023/09/08 00:13:50;;;;;;;18.67;9.90;;;14.80;99.90;;;;;;5036471;28;20024;-66
2023/09/08 00:16:16;;;;;;;19.75;10.55;;;14.80;99.90;;;;;;5036347;28;20106;-67
2023/09/08 00:18:42;;;;;;;14.70;9.52;;;14.70;99.90;;;;;;5036453;28;20079;-66
2023/09/08 00:21:08;;;;;;;12.23;9.38;;;14.70;99.90;;;;;;5036127;28;20426;-66
2023/09/08 00:23:34;;;;;;;13.75;10.00;;;14.70;99.90;;;;;;5035255;28;20037;-66
2023/09/08 00:26:00;;;;;;;15.55;9.30;;;14.60;99.90;;;;;;5016420;28;20476;-66
2023/09/08 00:28:25;;;;;;;14.07;9.55;;;14.70;99.90;;;;;;5016285;28;20037;-66
2023/09/08 00:30:51;;;;;;;14.68;9.93;;;14.70;99.90;;;;;;5016367;28;20037;-66
2023/09/08 00:33:17;;;;;;;18.60;9.82;;;14.70;99.90;;;;;;5016179;28;20061;-66
2023/09/08 00:35:50;;;;;;;16.52;9.77;;;14.70;99.90;;;;;;5016133;28;20036;-66
2023/09/08 00:38:16;;;;;;;13.57;9.70;;;14.60;99.90;;;;;;5015013;28;20041;-66
2023/09/08 00:40:41;;;;;;;13.93;9.63;;;14.70;99.90;;;;;;5015992;28;20029;-66
2023/09/08 00:43:07;;;;;;;17.67;10.10;;;14.70;99.90;;;;;;5014921;28;20109;-66
2023/09/08 00:45:40;;;;;;;15.10;9.30;;;14.60;99.90;;;;;;5014866;28;20072;-66
2023/09/08 00:48:07;;;;;;;16.10;9.60;;;14.60;99.90;;;;;;5016019;28;20044;-66
2023/09/08 00:50:33;;;;;;;14.90;9.68;;;14.40;99.90;;;;;;5015856;28;20097;-66
2023/09/08 00:52:59;;;;;;;19.90;9.85;;;14.40;99.90;;;;;;5018925;28;20490;-66
2023/09/08 00:55:25;;;;;;;15.45;10.00;;;14.40;99.90;;;;;;5035653;28;20022;-66
2023/09/08 00:57:51;;;;;;;13.50;8.98;;;14.40;99.90;;;;;;5033349;28;20033;-66
2023/09/08 01:00:17;;;;;;;14.63;9.95;;;14.40;99.90;;;;;;5034064;28;20026;-66
2023/09/08 01:02:45;;;;;;;14.30;9.43;;;14.30;99.90;;;;;;5035333;28;20033;-67
2023/09/08 01:05:12;;;;;;;15.60;9.57;;;14.30;99.90;;;;;;5033969;28;20179;-66
2023/09/08 01:07:38;;;;;;;13.57;9.63;;;14.20;99.90;;;;;;5035508;28;20031;-66
2023/09/08 01:10:06;;;;;;;12.90;8.98;;;14.20;99.90;;;;;;5035556;28;20025;-66
2023/09/08 01:12:34;;;;;;;18.52;8.90;;;14.30;99.90;;;;;;5035040;28;20028;-66
2023/09/08 01:15:06;;;;;;;12.57;8.75;;;14.30;99.90;;;;;;5035331;28;20387;-66
2023/09/08 01:17:33;;;;;;;10.93;8.25;;;14.20;99.90;;;;;;5035358;28;20029;-66
2023/09/08 01:20:07;;;;;;;15.32;7.75;;;14.20;99.90;;;;;;5033995;28;20064;-66
2023/09/08 01:22:52;;;;;;;11.15;7.93;;;14.40;99.90;;;;;;5035081;28;20039;-66
2023/09/08 01:25:20;;;;;;;15.52;9.25;;;14.40;99.90;;;;;;5019909;28;20034;-66
2023/09/08 01:27:50;;;;;;;13.18;8.10;;;14.40;99.90;;;;;;5013916;28;20057;-66
2023/09/08 01:30:17;;;;;;;10.13;8.15;;;14.40;99.90;;;;;;5015159;28;20026;-66
2023/09/08 01:32:44;;;;;;;10.25;8.30;;;14.30;99.90;;;;;;5015265;28;20022;-67
2023/09/08 01:35:11;;;;;;;11.15;7.82;;;14.30;99.90;;;;;;5015541;28;20029;-67
2023/09/08 01:37:40;;;;;;;10.77;8.20;;;14.20;99.90;;;;;;5013839;28;20021;-66
2023/09/08 01:40:07;;;;;;;17.08;8.55;;;14.30;99.90;;;;;;5015036;28;20500;-66
2023/09/08 01:42:33;;;;;;;15.98;8.60;;;14.20;99.90;;;;;;5013849;28;20025;-66
2023/09/08 01:45:00;;;;;;;11.50;7.97;;;14.10;99.90;;;;;;5015116;28;20037;-66
2023/09/08 01:47:29;;;;;;;10.88;7.82;;;14.10;99.90;;;;;;5013688;28;20145;-66
2023/09/08 01:49:55;;;;;;;11.77;8.57;;;14.10;99.90;;;;;;5013840;28;20549;-66
2023/09/08 01:52:21;;;;;;;10.45;8.10;;;14.10;99.90;;;;;;5014906;28;20022;-66
2023/09/08 01:54:47;;;;;;;15.30;8.50;;;14.00;99.90;;;;;;5032357;28;20033;-66
2023/09/08 01:57:12;;;;;;;16.40;8.23;;;14.00;99.90;;;;;;5034658;28;20018;-66
2023/09/08 01:59:38;;;;;;;14.35;8.45;;;14.00;99.90;;;;;;5033396;28;20112;-66
2023/09/08 02:02:04;;;;;;;14.10;8.80;;;13.90;99.90;;;;;;5033253;28;20033;-66
2023/09/08 02:04:30;;;;;;;11.02;7.93;;;13.90;99.90;;;;;;5034394;28;20037;-66
2023/09/08 02:06:56;;;;;;;13.48;8.27;;;14.00;99.90;;;;;;5034498;28;20033;-66
2023/09/08 02:09:33;;;;;;;10.85;7.82;;;13.90;99.90;;;;;;5034079;28;20586;-66
2023/09/08 02:12:00;;;;;;;14.75;8.15;;;13.80;99.90;;;;;;5034367;28;20026;-66
2023/09/08 02:14:27;;;;;;;11.85;7.80;;;13.80;99.90;;;;;;5034221;28;20036;-66
2023/09/08 02:16:57;;;;;;;12.75;8.55;;;13.80;99.90;;;;;;5033478;28;20029;-66
2023/09/08 02:19:23;;;;;;;13.00;8.40;;;13.80;99.90;;;;;;5033377;28;20026;-66
2023/09/08 02:21:49;;;;;;;16.75;9.07;;;13.70;99.90;;;;;;5034328;28;20743;-67
2023/09/08 02:24:15;;;;;;;9.93;7.93;;;13.70;99.90;;;;;;5027598;28;20037;-66
2023/09/08 02:26:42;;;;;;;12.98;8.50;;;13.60;99.90;;;;;;5013306;28;20514;-66
2023/09/08 02:29:08;;;;;;;13.02;8.50;;;13.70;99.90;;;;;;5013206;28;20288;-67
2023/09/08 02:31:34;;;;;;;18.27;8.48;;;13.60;99.90;;;;;;5014488;28;20030;-66
2023/09/08 02:34:04;;;;;;;12.15;7.03;;;13.70;99.90;;;;;;5013199;28;20036;-66
2023/09/08 02:36:31;;;;;;;14.15;7.53;;;13.80;99.90;;;;;;5013188;28;20089;-67
2023/09/08 02:38:57;;;;;;;11.88;7.53;;;13.90;99.90;;;;;;5014424;28;20064;-67
2023/09/08 02:41:24;;;;;;;11.60;7.75;;;13.80;99.90;;;;;;5013175;28;20038;-66
2023/09/08 02:43:50;;;;;;;12.15;8.07;;;13.80;99.90;;;;;;5013163;28;20053;-66
2023/09/08 02:46:18;;;;;;;9.80;7.65;;;13.80;99.90;;;;;;5013143;28;20030;-66
2023/09/08 02:48:44;;;;;;;14.38;7.40;;;13.70;99.90;;;;;;5013036;28;20037;-66
2023/09/08 02:51:12;;;;;;;14.18;8.30;;;13.70;99.90;;;;;;5012905;28;20030;-66
2023/09/08 02:53:38;;;;;;;14.63;7.65;;;13.50;99.90;;;;;;5022646;28;20025;-66
2023/09/08 02:56:05;;;;;;;13.05;8.90;;;13.50;99.90;;;;;;5034072;28;20731;-67
2023/09/08 02:58:34;;;;;;;14.73;7.57;;;13.50;99.90;;;;;;5033896;28;20032;-66
2023/09/08 03:01:14;;;;;;;16.05;8.30;;;13.50;99.90;;;;;;5032863;28;20211;-66
2023/09/08 03:03:41;;;;;;;12.88;7.57;;;13.40;99.90;;;;;;5032569;28;20391;-66
2023/09/08 03:06:07;;;;;;;11.68;7.28;;;13.50;99.90;;;;;;5033796;28;20049;-66
2023/09/08 03:08:33;;;;;;;12.15;7.28;;;13.50;99.90;;;;;;5034032;28;20037;-66
2023/09/08 03:11:00;;;;;;;11.43;7.90;;;13.40;99.90;;;;;;5032400;28;20029;-66
2023/09/08 03:13:26;;;;;;;12.07;7.40;;;13.30;99.90;;;;;;5032506;28;20241;-66
2023/09/08 03:15:52;;;;;;;10.38;7.38;;;13.30;99.90;;;;;;5034014;28;20029;-66
2023/09/08 03:18:18;;;;;;;11.57;7.75;;;13.40;99.90;;;;;;5033569;28;20037;-66
2023/09/08 03:20:49;;;;;;;12.05;7.53;;;13.40;99.90;;;;;;5035346;28;20501;-66
2023/09/08 03:23:16;;;;;;;13.13;8.43;;;13.30;99.90;;;;;;5036093;28;20276;-66
2023/09/08 03:25:43;;;;;;;16.20;8.38;;;13.30;99.90;;;;;;5018832;28;20037;-67
2023/09/08 03:28:09;;;;;;;16.42;8.07;;;13.30;99.90;;;;;;5017861;28;20056;-66
2023/09/08 03:30:35;;;;;;;13.27;8.65;;;13.30;99.90;;;;;;5017438;28;20030;-66
2023/09/08 03:33:01;;;;;;;13.27;7.93;;;13.20;99.90;;;;;;5016006;28;20033;-66
2023/09/08 03:35:27;;;;;;;12.60;8.13;;;13.20;99.90;;;;;;5016177;28;20056;-66
2023/09/08 03:37:53;;;;;;;10.73;7.80;;;13.20;99.90;;;;;;5017377;28;20022;-66
2023/09/08 03:40:19;;;;;;;11.68;7.90;;;13.10;99.90;;;;;;5015854;28;20192;-66
2023/09/08 03:42:45;;;;;;;12.07;7.88;;;13.10;99.90;;;;;;5016096;28;20121;-66
2023/09/08 03:45:11;;;;;;;17.13;7.72;;;13.10;99.90;;;;;;5015995;28;20565;-66
2023/09/08 03:47:37;;;;;;;11.43;7.85;;;13.10;99.90;;;;;;5016023;28;20032;-66
2023/09/08 03:50:03;;;;;;;12.27;7.53;;;13.10;99.90;;;;;;5015928;28;20379;-66
2023/09/08 03:52:29;;;;;;;11.23;7.72;;;13.10;99.90;;;;;;5017183;28;20057;-66
2023/09/08 03:54:55;;;;;;;10.85;7.38;;;13.10;99.90;;;;;;5035403;28;20072;-66
2023/09/08 03:57:21;;;;;;;12.85;8.82;;;13.00;99.90;;;;;;5036914;28;20108;-66
2023/09/08 03:59:47;;;;;;;10.55;7.53;;;13.00;99.90;;;;;;5035387;28;20045;-66
2023/09/08 04:02:13;;;;;;;13.45;8.48;;;13.00;99.90;;;;;;5036639;28;20454;-66
2023/09/08 04:04:39;;;;;;;10.13;7.68;;;13.00;99.90;;;;;;5035366;28;20068;-66
2023/09/08 04:07:05;;;;;;;11.80;7.80;;;12.90;99.90;;;;;;5036578;28;20383;-66
2023/09/08 04:09:31;;;;;;;11.70;8.77;;;12.90;99.90;;;;;;5035041;28;20041;-66
2023/09/08 04:11:58;;;;;;;14.95;8.88;;;12.90;99.90;;;;;;5035159;28;20120;-66
2023/09/08 04:14:26;;;;;;;12.77;9.07;;;12.80;99.90;;;;;;5035101;28;20116;-66
2023/09/08 04:16:53;;;;;;;11.18;8.52;;;12.80;99.90;;;;;;5036575;28;20032;-66
2023/09/08 04:19:19;;;;;;;14.40;8.85;;;12.90;99.90;;;;;;5035037;28;20487;-66
2023/09/08 04:21:45;;;;;;;14.90;8.90;;;12.90;99.90;;;;;;5034947;28;20075;-66
2023/09/08 04:24:11;;;;;;;16.63;9.43;;;12.90;99.90;;;;;;5030146;28;20357;-66
2023/09/08 04:26:37;;;;;;;20.23;9.30;;;12.80;99.90;;;;;;5016507;28;20048;-66
2023/09/08 04:29:05;;;;;;;18.05;9.48;;;12.80;99.90;;;;;;5014985;28;20096;-66
2023/09/08 04:31:31;;;;;;;19.58;9.38;;;12.90;99.90;;;;;;5014551;28;20454;-66
2023/09/08 04:33:56;;;;;;;16.05;8.82;;;12.90;99.90;;;;;;5015145;28;20065;-66
2023/09/08 04:36:23;;;;;;;13.98;8.85;;;13.00;99.90;;;;;;5016319;28;20478;-66
2023/09/08 04:38:49;;;;;;;12.80;8.73;;;13.00;99.90;;;;;;5016165;28;20022;-66
2023/09/08 04:41:15;;;;;;;12.15;8.52;;;12.90;99.90;;;;;;5016159;28;20096;-66
2023/09/08 04:43:41;;;;;;;16.65;9.90;;;12.90;99.90;;;;;;5014758;28;20045;-67
2023/09/08 04:46:08;;;;;;;24.77;12.15;;;12.90;99.90;;;;;;5014662;28;20040;-66
2023/09/08 04:48:34;;;;;;;33.30;11.38;;;13.00;99.90;;;;;;5014988;28;20481;-66
2023/09/08 04:51:00;;;;;;;22.45;10.63;;;13.10;99.90;;;;;;5014477;28;20124;-66
2023/09/08 04:53:28;;;;;;;26.45;11.07;;;13.30;99.90;;;;;;5022748;28;20128;-67
2023/09/08 04:55:54;;;;;;;21.90;9.73;;;13.40;99.90;;;;;;5034482;28;20045;-66
2023/09/08 04:58:20;;;;;;;17.70;9.05;;;13.50;99.90;;;;;;5034073;28;20360;-66
2023/09/08 05:00:48;;;;;;;20.92;10.30;;;13.60;99.90;;;;;;5034293;28;20049;-66
2023/09/08 05:03:14;;;;;;;29.98;11.48;;;13.60;99.90;;;;;;5034057;28;20572;-66
2023/09/08 05:05:40;;;;;;;38.40;11.30;;;13.70;99.90;;;;;;5034978;28;20045;-66
2023/09/08 05:08:06;;;;;;;26.70;8.82;;;13.90;99.90;;;;;;5035496;28;20032;-66
2023/09/08 05:10:32;;;;;;;23.77;9.13;;;13.90;99.90;;;;;;5033882;28;20394;-66
2023/09/08 05:12:58;;;;;;;14.70;9.57;;;14.00;99.90;;;;;;5033756;28;20028;-66
2023/09/08 05:15:26;;;;;;;24.67;10.55;;;14.00;99.90;;;;;;5033400;28;20036;-66
2023/09/08 05:17:53;;;;;;;16.85;9.73;;;14.20;99.90;;;;;;5026091;28;20100;-66
2023/09/08 05:20:20;;;;;;;17.70;9.57;;;14.30;99.90;;;;;;5033835;28;20026;-67
2023/09/08 05:22:46;;;;;;;19.48;10.93;;;14.40;99.90;;;;;;5032448;28;20033;-67
2023/09/08 05:25:12;;;;;;;31.00;14.70;;;14.50;99.90;;;;;;5019864;28;20037;-67
2023/09/08 05:27:38;;;;;;;56.58;13.88;;;14.60;99.90;;;;;;5027224;28;20033;-66
2023/09/08 05:30:05;;;;;;;34.33;12.25;;;14.60;99.90;;;;;;5034323;28;20034;-67
2023/09/08 05:32:33;;;;;;;30.88;12.82;;;14.70;99.90;;;;;;5034108;28;20041;-67
2023/09/08 05:34:59;;;;;;;31.23;12.02;;;14.80;99.90;;;;;;5035333;28;20373;-66
2023/09/08 05:37:25;;;;;;;23.20;11.85;;;14.90;99.90;;;;;;5031414;28;20071;-67
2023/09/08 05:39:51;;;;;;;28.77;12.40;;;15.00;99.90;;;;;;5032425;28;20033;-67
2023/09/08 05:42:17;;;;;;;23.48;11.90;;;15.20;99.90;;;;;;5033951;28;20029;-66
2023/09/08 05:44:45;;;;;;;21.25;12.07;;;15.30;99.90;;;;;;5033824;28;20036;-67
2023/09/08 05:47:11;;;;;;;19.33;11.80;;;15.30;99.90;;;;;;5035338;28;20084;-66
2023/09/08 05:49:37;;;;;;;27.75;14.05;;;15.40;99.90;;;;;;5033586;28;20025;-66
2023/09/08 05:52:03;;;;;;;33.90;16.15;;;15.60;99.90;;;;;;5033820;28;20025;-66
2023/09/08 05:54:30;;;;;;;28.75;14.73;;;15.60;99.90;;;;;;5032121;28;20029;-66
2023/09/08 05:56:56;;;;;;;23.95;14.27;;;15.70;99.90;;;;;;5032984;28;20029;-66
2023/09/08 05:59:22;;;;;;;30.65;15.50;;;15.90;99.90;;;;;;5033045;28;20562;-66
2023/09/08 06:01:48;;;;;;;35.50;18.83;;;15.90;99.90;;;;;;5033055;28;20029;-67
2023/09/08 06:04:16;;;;;;;36.92;18.77;;;16.00;99.90;;;;;;5030376;28;20037;-67
2023/09/08 06:06:42;;;;;;;41.03;20.05;;;16.40;99.90;;;;;;5033036;28;20491;-66
2023/09/08 06:09:12;;;;;;;36.08;18.75;;;16.50;99.90;;;;;;5027785;28;20061;-67
2023/09/08 06:11:38;;;;;;;34.47;19.40;;;16.70;99.90;;;;;;5013336;28;20530;-67
2023/09/08 06:14:04;;;;;;;35.05;19.20;;;16.90;99.90;;;;;;5028635;28;20431;-66
2023/09/08 06:16:39;;;;;;;36.60;20.52;;;17.20;99.90;;;;;;5012799;28;20566;-67
2023/09/08 06:19:07;;;;;;;36.67;21.52;;;17.50;99.90;;;;;;5031554;28;20025;-67
2023/09/08 06:21:33;;;;;;;46.17;21.38;;;17.80;99.90;;;;;;5032061;28;20466;-67
2023/09/08 06:23:59;;;;;;;43.60;19.35;;;18.00;99.90;;;;;;5013140;28;20068;-67
2023/09/08 06:26:25;;;;;;;37.72;20.10;;;18.50;99.90;;;;;;5013217;28;20053;-67
2023/09/08 06:28:52;;;;;;;40.72;19.55;;;18.80;99.90;;;;;;5013158;28;20064;-67
2023/09/08 06:31:19;;;;;;;32.35;15.93;;;19.20;99.90;;;;;;5012605;28;20041;-67
2023/09/08 06:33:46;;;;;;;30.45;15.35;;;19.50;99.90;;;;;;5013161;28;20038;-67
2023/09/08 06:36:12;;;;;;;32.88;14.60;;;19.80;99.90;;;;;;5012675;28;20475;-67
2023/09/08 06:38:38;;;;;;;34.25;15.90;;;20.00;99.60;;;;;;5013965;28;20104;-67
2023/09/08 06:41:11;;;;;;;29.48;14.55;;;20.10;99.00;;;;;;5013214;28;20040;-67
2023/09/08 06:43:37;;;;;;;29.80;15.20;;;20.40;98.70;;;;;;5012811;28;20033;-67
2023/09/08 06:46:09;;;;;;;33.50;15.52;;;20.60;97.90;;;;;;5012981;28;20029;-67
2023/09/08 06:48:35;;;;;;;26.70;13.07;;;20.80;97.10;;;;;;5012790;28;20532;-67
2023/09/08 06:51:01;;;;;;;38.90;14.25;;;21.10;95.80;;;;;;5012848;28;20029;-67
2023/09/08 06:53:27;;;;;;;27.40;13.55;;;21.10;94.90;;;;;;5020518;28;20493;-67
2023/09/08 06:55:53;;;;;;;31.17;14.50;;;21.30;94.70;;;;;;5021586;28;20371;-67
2023/09/08 06:58:19;;;;;;;28.40;12.95;;;21.70;94.90;;;;;;5018922;28;20091;-67
2023/09/08 07:00:45;;;;;;;24.73;11.02;;;22.00;93.20;;;;;;5022080;28;20128;-67
2023/09/08 07:03:11;;;;;;;27.48;12.90;;;22.50;93.00;;;;;;5036942;28;20479;-67
2023/09/08 07:05:41;;;;;;;25.02;12.15;;;22.50;91.30;;;;;;5036809;28;20065;-67
2023/09/08 07:08:07;;;;;;;23.45;11.02;;;22.60;90.70;;;;;;5037008;28;20030;-67
2023/09/08 07:10:33;;;;;;;24.33;11.05;;;23.00;90.00;;;;;;5036906;28;20025;-67
2023/09/08 07:12:59;;;;;;;19.45;9.98;;;23.10;88.40;;;;;;5036570;28;20036;-67
2023/09/08 07:15:26;;;;;;;23.50;10.45;;;23.10;86.10;;;;;;5036556;28;20029;-67
2023/09/08 07:17:52;;;;;;;21.85;10.02;;;23.30;86.30;;;;;;5033552;28;20044;-67
2023/09/08 07:20:18;;;;;;;24.75;10.95;;;23.90;85.40;;;;;;5037810;28;20025;-67
2023/09/08 07:22:46;;;;;;;24.38;10.98;;;24.10;82.60;;;;;;5036351;28;20025;-67
2023/09/08 07:25:12;;;;;;;32.65;12.35;;;24.70;80.30;;;;;;5035765;28;20021;-67
2023/09/08 07:27:39;;;;;;;31.75;11.98;;;24.90;75.70;;;;;;5035332;28;20025;-67
2023/09/08 07:30:06;;;;;;;19.60;10.20;;;25.20;73.40;;;;;;5035321;28;20034;-67
2023/09/08 07:32:33;;;;;;;33.92;12.23;;;25.30;69.60;;;;;;5022429;28;20078;-67
2023/09/08 07:35:01;;;;;;;32.03;11.48;;;25.30;69.80;;;;;;5022810;28;20498;-67
2023/09/08 07:37:30;;;;;;;20.63;9.48;;;25.30;68.70;;;;;;5014313;28;20048;-67
2023/09/08 07:39:56;;;;;;;23.33;10.25;;;25.70;69.00;;;;;;5014408;28;20480;-68
2023/09/08 07:42:23;;;;;;;35.03;9.55;;;26.10;65.90;;;;;;5029405;28;20040;-68
2023/09/08 07:44:49;;;;;;;47.22;11.32;;;26.20;65.60;;;;;;5035156;28;20029;-70
2023/09/08 07:47:15;;;;;;;22.65;10.43;;;26.50;64.60;;;;;;5036683;28;20479;-67
2023/09/08 07:49:47;;;;;;;23.23;9.45;;;26.50;61.90;;;;;;5036054;28;20025;-68
2023/09/08 07:52:13;;;;;;;20.73;9.15;;;26.40;61.80;;;;;;5035534;28;20373;-68
2023/09/08 07:54:39;;;;;;;27.23;10.82;;;26.50;59.10;;;;;;5018660;28;20017;-68
2023/09/08 07:57:05;;;;;;;21.92;9.77;;;26.70;58.60;;;;;;5016199;28;20048;-68
2023/09/08 07:59:31;;;;;;;22.58;9.48;;;26.90;57.70;;;;;;5015352;28;20030;-68
2023/09/08 08:01:57;;;;;;;18.58;9.27;;;26.90;55.80;;;;;;5024909;28;20075;-68
2023/09/08 08:04:23;;;;;;;27.20;9.77;;;26.90;54.40;;;;;;5035968;28;20076;-68
2023/09/08 08:06:52;;;;;;;23.55;10.20;;;27.50;55.20;;;;;;5035498;28;20444;-68
2023/09/08 08:09:18;;;;;;;27.08;9.20;;;27.80;54.60;;;;;;5036220;28;20029;-68
2023/09/08 08:11:44;;;;;;;22.58;8.65;;;27.60;51.90;;;;;;5027441;28;20139;-68
2023/09/08 08:14:10;;;;;;;25.38;10.05;;;28.00;51.80;;;;;;5016554;28;20026;-68
2023/09/08 08:16:36;;;;;;;25.92;10.55;;;28.10;52.20;;;;;;5016223;28;20037;-68
2023/09/08 08:19:03;;;;;;;21.65;9.70;;;28.20;52.70;;;;;;5016594;28;20032;-68
2023/09/08 08:21:29;;;;;;;15.70;7.45;;;28.40;50.50;;;;;;5018142;28;20029;-68
2023/09/08 08:23:55;;;;;;;16.92;7.53;;;29.10;52.50;;;;;;5028029;28;20025;-68
2023/09/08 08:26:28;;;;;;;17.52;8.30;;;28.90;48.80;;;;;;5034780;28;20047;-68
2023/09/08 08:28:54;;;;;;;20.58;8.00;;;28.90;48.10;;;;;;5036193;28;20033;-69
2023/09/08 08:31:20;;;;;;;19.27;7.97;;;29.30;48.30;;;;;;5037179;28;20188;-69
2023/09/08 08:33:46;;;;;;;15.32;7.50;;;29.30;47.50;;;;;;5056278;28;20033;-68
2023/09/08 08:36:12;;;;;;;23.73;8.48;;;29.60;45.30;;;;;;5036086;28;20089;-69
2023/09/08 08:38:38;;;;;;;14.38;7.25;;;30.20;45.60;;;;;;5035658;28;20049;-69
2023/09/08 08:41:04;;;;;;;15.77;7.82;;;30.50;44.10;;;;;;5035749;28;20052;-69
2023/09/08 08:43:32;;;;;;;12.77;7.57;;;30.20;44.20;;;;;;5033653;28;20474;-69
2023/09/08 08:45:59;;;;;;;20.65;8.40;;;30.50;44.30;;;;;;5035725;28;20116;-69
2023/09/08 08:48:27;;;;;;;16.67;7.95;;;30.70;44.40;;;;;;5035315;28;20029;-69
2023/09/08 08:50:53;;;;;;;26.13;8.95;;;30.50;42.90;;;;;;5033965;28;20056;-69
2023/09/08 08:53:21;;;;;;;22.10;8.52;;;30.70;42.60;;;;;;5027889;28;20375;-69
2023/09/08 08:55:49;;;;;;;19.70;8.25;;;30.90;41.60;;;;;;5033474;28;20092;-69
2023/09/08 08:58:15;;;;;;;31.33;7.47;;;30.70;41.00;;;;;;5032879;28;20456;-70
2023/09/08 09:00:41;;;;;;;15.27;8.10;;;30.20;41.70;;;;;;5028151;28;20036;-68
2023/09/08 09:03:08;;;;;;;17.33;7.20;;;30.10;42.30;;;;;;5030257;28;20044;-68
2023/09/08 09:05:37;;;;;;;21.60;7.30;;;30.50;41.80;;;;;;5035177;28;20641;-68
2023/09/08 09:08:04;;;;;;;10.63;5.93;;;30.90;41.60;;;;;;5034988;28;20037;-69
2023/09/08 09:10:31;;;;;;;13.32;6.70;;;31.00;38.40;;;;;;5034013;28;20459;-69
2023/09/08 09:12:58;;;;;;;12.85;6.53;;;31.50;39.10;;;;;;5032073;28;20391;-69
2023/09/08 09:15:30;;;;;;;12.30;6.53;;;31.10;38.00;;;;;;5034393;28;20077;-69
2023/09/08 09:18:06;;;;;;;13.70;6.65;;;31.30;37.60;;;;;;5028752;28;20371;-69
2023/09/08 09:20:32;;;;;;;19.23;8.07;;;30.70;38.70;;;;;;5035102;28;20022;-69
2023/09/08 09:22:58;;;;;;;10.57;6.95;;;29.20;41.00;;;;;;5035716;28;20422;-69
2023/09/08 09:25:29;;;;;;;13.65;6.97;;;29.90;39.50;;;;;;5033487;28;20089;-69
2023/09/08 09:28:00;;;;;;;15.20;7.40;;;31.00;40.30;;;;;;5023057;28;20030;-69
2023/09/08 09:30:28;;;;;;;12.77;5.75;;;31.80;38.30;;;;;;5019057;28;20081;-69
2023/09/08 09:33:04;;;;;;;12.68;7.13;;;32.20;36.10;;;;;;5029638;28;20026;-68
2023/09/08 09:35:59;;;;;;;9.15;6.15;;;32.80;34.30;;;;;;5031116;28;20025;-69
2023/09/08 09:38:26;;;;;;;10.75;6.78;;;32.70;32.90;;;;;;5025571;28;20083;-69
2023/09/08 09:40:52;;;;;;;15.88;6.63;;;31.70;33.40;;;;;;5033424;28;20383;-69
2023/09/08 09:43:22;;;;;;;10.68;6.07;;;31.80;31.10;;;;;;5028701;28;20530;-69
2023/09/08 09:45:48;;;;;;;15.57;6.10;;;31.70;34.70;;;;;;5014132;28;20041;-69
2023/09/08 09:48:15;;;;;;;14.90;6.50;;;32.60;31.20;;;;;;5019737;28;20029;-68
2023/09/08 09:50:44;;;;;;;18.75;5.68;;;32.40;29.80;;;;;;5022662;28;20109;-69
2023/09/08 09:53:13;;;;;;;12.50;6.03;;;30.80;31.70;;;;;;5022660;28;20029;-69
2023/09/08 09:55:41;;;;;;;12.10;6.03;;;31.30;30.70;;;;;;5033685;28;20065;-69
2023/09/08 09:58:10;;;;;;;13.38;4.50;;;31.80;30.00;;;;;;5028235;28;20026;-69
2023/09/08 10:00:37;;;;;;;15.18;4.85;;;31.50;27.50;;;;;;5019706;28;20088;-69
2023/09/08 10:03:04;;;;;;;8.77;4.28;;;31.30;27.40;;;;;;5033824;28;20022;-68
2023/09/08 10:05:30;;;;;;;10.00;4.80;;;30.60;27.90;;;;;;5033683;28;20045;-69
2023/09/08 10:07:57;;;;;;;8.95;4.65;;;31.60;27.80;;;;;;5028489;28;20026;-69
2023/09/08 10:10:26;;;;;;;12.13;5.07;;;31.40;27.40;;;;;;5013655;28;20017;-69
2023/09/08 10:12:54;;;;;;;13.15;5.40;;;32.20;28.00;;;;;;5032763;28;20049;-69
2023/09/08 10:15:22;;;;;;;13.15;4.90;;;32.40;26.20;;;;;;5033763;28;20037;-68
2023/09/08 10:17:54;;;;;;;7.78;4.57;;;32.80;25.40;;;;;;5030339;28;20032;-69
2023/09/08 10:20:24;;;;;;;10.25;4.65;;;31.80;26.10;;;;;;5022281;28;20044;-69
2023/09/08 10:22:55;;;;;;;9.00;4.22;;;31.40;27.90;;;;;;5022990;28;20041;-69
2023/09/08 10:25:24;;;;;;;6.72;3.72;;;31.30;27.80;;;;;;5016603;28;20036;-69
2023/09/08 10:27:50;;;;;;;5.80;3.92;;;30.70;27.60;;;;;;5029765;28;20458;-68
2023/09/08 10:30:20;;;;;;;7.22;4.38;;;30.20;28.20;;;;;;5034721;28;20069;-68
2023/09/08 10:32:49;;;;;;;7.15;4.40;;;30.80;28.10;;;;;;5036846;28;20032;-69
2023/09/08 10:35:17;;;;;;;10.47;4.77;;;31.60;27.20;;;;;;5031701;28;20799;-69
2023/09/08 10:37:43;;;;;;;7.53;4.47;;;31.80;26.50;;;;;;5017654;28;20397;-68
2023/09/08 10:40:33;;;;;;;9.25;5.45;;;31.70;26.60;;;;;;5025436;28;20033;-69
2023/09/08 10:43:09;;;;;;;8.80;4.47;;;32.20;26.40;;;;;;5028553;28;20057;-69
2023/09/08 10:45:35;;;;;;;8.13;4.30;;;31.20;27.10;;;;;;5032470;28;20026;-67
2023/09/08 10:48:06;;;;;;;8.77;4.35;;;31.10;26.80;;;;;;5037035;28;20471;-68
2023/09/08 10:50:35;;;;;;;20.75;7.07;;;30.70;26.50;;;;;;5036496;28;20028;-68
2023/09/08 10:53:17;;;;;;;9.13;4.20;;;30.70;28.30;;;;;;5036827;28;20024;-68
2023/09/08 10:55:49;;;;;;;11.90;4.68;;;31.20;27.40;;;;;;5035312;28;20030;-68
2023/09/08 10:58:38;;;;;;;10.48;4.53;;;32.30;27.90;;;;;;5035556;28;20025;-68
2023/09/08 11:01:05;;;;;;;9.38;5.20;;;33.00;25.60;;;;;;5037434;28;20072;-68
2023/09/08 11:03:37;;;;;;;17.05;5.90;;;32.00;25.60;;;;;;5036906;28;20454;-69
2023/09/08 11:06:04;;;;;;;7.57;4.10;;;32.50;25.00;;;;;;5037390;28;20514;-68
2023/09/08 11:08:30;;;;;;;9.48;4.43;;;33.20;24.90;;;;;;5037169;28;20037;-68
2023/09/08 11:10:56;;;;;;;12.32;4.57;;;32.80;21.50;;;;;;5036740;28;20106;-68
2023/09/08 11:13:22;;;;;;;17.30;5.18;;;33.10;24.90;;;;;;5017196;28;20102;-69
2023/09/08 11:15:52;;;;;;;11.23;5.47;;;33.80;23.00;;;;;;5017535;28;20101;-68
2023/09/08 11:18:25;;;;;;;7.95;3.85;;;33.60;23.30;;;;;;5017072;28;20086;-69
2023/09/08 11:20:55;;;;;;;7.53;4.65;;;34.10;22.00;;;;;;5028392;28;20084;-69
2023/09/08 11:23:21;;;;;;;13.93;6.88;;;33.00;21.60;;;;;;5035742;28;20085;-69
2023/09/08 11:25:50;;;;;;;4.63;3.47;;;32.50;23.60;;;;;;5037825;28;20048;-69
2023/09/08 11:28:16;;;;;;;5.47;4.05;;;32.60;23.00;;;;;;5033745;28;20060;-68
2023/09/08 11:30:42;;;;;;;5.90;4.00;;;32.80;22.50;;;;;;5037232;28;20494;-69
2023/09/08 11:33:24;;;;;;;7.45;4.85;;;32.20;23.90;;;;;;5036883;28;20490;-69
2023/09/08 11:35:55;;;;;;;10.32;4.03;;;32.50;24.00;;;;;;5035159;28;20109;-68
2023/09/08 11:38:26;;;;;;;8.70;5.50;;;31.80;24.00;;;;;;5036284;28;20030;-68
2023/09/08 11:41:00;;;;;;;6.30;4.18;;;31.80;24.70;;;;;;5037887;28;20454;-69
2023/09/08 11:43:27;;;;;;;12.00;4.45;;;31.40;24.30;;;;;;5040451;28;20032;-68
2023/09/08 11:45:53;;;;;;;14.77;5.28;;;32.40;23.80;;;;;;5056486;28;20398;-69
2023/09/08 11:48:19;;;;;;;10.13;4.57;;;33.20;22.50;;;;;;5039366;28;20035;-69
2023/09/08 11:50:45;;;;;;;9.23;4.68;;;33.70;23.00;;;;;;5036483;28;20070;-69
2023/09/08 11:53:11;;;;;;;16.80;5.75;;;34.30;21.80;;;;;;5027981;28;20128;-68
2023/09/08 11:55:37;;;;;;;13.65;4.57;;;33.00;21.30;;;;;;5036572;28;20033;-69
2023/09/08 11:58:04;;;;;;;5.07;4.03;;;32.30;22.60;;;;;;5035194;28;20037;-68
2023/09/08 12:00:30;;;;;;;12.40;4.05;;;32.10;22.70;;;;;;5036482;28;20025;-69
2023/09/08 12:03:08;;;;;;;9.77;3.97;;;31.80;24.30;;;;;;5036597;28;20025;-68
2023/09/08 12:05:35;;;;;;;16.27;5.20;;;32.00;24.50;;;;;;5035782;28;20372;-68
2023/09/08 12:08:07;;;;;;;9.65;5.47;;;32.70;23.60;;;;;;5036407;28;20163;-68
2023/09/08 12:10:43;;;;;;;16.10;4.97;;;31.00;24.30;;;;;;5035606;28;20040;-68
2023/09/08 12:13:10;;;;;;;8.60;4.13;;;31.50;24.40;;;;;;5031148;28;20041;-68
2023/09/08 12:15:43;;;;;;;8.82;5.05;;;31.80;23.20;;;;;;5024181;28;20089;-68
2023/09/08 12:18:12;;;;;;;12.63;5.30;;;32.60;23.50;;;;;;5029700;28;20034;-69
2023/09/08 12:20:40;;;;;;;9.55;4.53;;;33.20;23.50;;;;;;5045637;28;20038;-69
2023/09/08 12:23:15;;;;;;;13.50;5.55;;;33.10;22.30;;;;;;5037134;28;20602;-68
2023/09/08 12:25:49;;;;;;;12.32;4.05;;;33.00;23.00;;;;;;5036008;28;20029;-68
2023/09/08 12:28:17;;;;;;;7.82;4.00;;;33.40;22.70;;;;;;5035539;28;20570;-69
2023/09/08 12:30:46;;;;;;;11.52;5.38;;;33.60;23.10;;;;;;5034979;28;20018;-68
2023/09/08 12:33:14;;;;;;;8.75;4.30;;;33.10;22.90;;;;;;5033324;28;20078;-69
2023/09/08 12:35:45;;;;;;;8.95;4.40;;;33.40;22.50;;;;;;5034768;28;20455;-69
2023/09/08 12:38:11;;;;;;;9.02;4.22;;;31.80;23.40;;;;;;5032897;28;20108;-69